Time;durP1;ratioP1;P1;durP2;ratioP2;P2;SDS_P1;SDS_P2;PMS_P1;PMS_P2;Temp;Humidity;BMP_temperature;BMP_pressure;BME280_temperature;BME280_humidity;BME280_pressure;Samples;Min_cycle;Max_cycle;Signal;HPM_P1;HPM_P2
2023/09/27 10:42:24;;;;;;;16.70;9.80;;;32.40;99.90;;;;;;6186200;23;20434;-82
2023/09/27 10:45:43;;;;;;;15.88;9.20;;;32.50;99.90;;;;;;6165989;23;20182;-79
2023/09/27 10:48:33;;;;;;;16.77;9.00;;;32.70;99.90;;;;;;6161826;23;20180;-81
2023/09/27 11:18:26;;;;;;;13.13;8.43;;;33.70;98.20;;;;;;6153312;23;20647;-79
2023/09/27 11:21:29;;;;;;;26.00;10.10;;;33.90;97.70;;;;;;6158691;22;20202;-79
2023/09/27 11:24:42;;;;;;;15.00;8.27;;;33.90;96.60;;;;;;6164798;23;20174;-78
2023/09/27 11:27:22;;;;;;;18.73;9.05;;;34.30;96.10;;;;;;6210798;23;20677;-77
2023/09/27 11:30:05;;;;;;;15.00;7.65;;;34.70;95.40;;;;;;6205790;23;20229;-80
2023/09/27 11:33:56;;;;;;;10.82;7.20;;;34.90;94.20;;;;;;6119899;23;20257;-80
2023/09/27 11:37:17;;;;;;;12.75;7.82;;;35.80;92.10;;;;;;6180464;23;20257;-81
2023/09/27 11:40:33;;;;;;;12.30;8.13;;;36.00;90.90;;;;;;6180926;23;20171;-91
2023/09/27 11:43:17;;;;;;;13.30;7.40;;;36.30;90.30;;;;;;6134361;23;20616;-86
2023/09/27 11:45:58;;;;;;;9.68;7.13;;;36.50;90.20;;;;;;6133501;23;20163;-86
2023/09/27 11:48:33;;;;;;;13.45;7.70;;;36.80;87.80;;;;;;6131773;23;20171;-86
2023/09/27 11:51:07;;;;;;;12.45;7.47;;;36.80;86.60;;;;;;6156054;23;20420;-87
2023/09/27 11:53:50;;;;;;;14.88;7.60;;;36.80;86.00;;;;;;6157282;23;20202;-89
2023/09/27 14:48:25;;;;;;;18.48;8.70;;;27.10;95.90;;;;;;6206603;22;20218;-80
2023/09/27 14:51:07;;;;;;;13.40;8.80;;;27.00;96.30;;;;;;6165551;23;20225;-79
2023/09/27 14:53:43;;;;;;;13.85;8.90;;;26.90;96.70;;;;;;6165942;23;20257;-80
2023/09/27 14:56:12;;;;;;;15.02;8.73;;;26.80;97.00;;;;;;6186569;23;20163;-80
2023/09/27 14:58:41;;;;;;;14.07;8.57;;;26.70;97.00;;;;;;6212701;23;20501;-79
2023/09/27 15:01:20;;;;;;;13.10;8.45;;;26.70;97.50;;;;;;6187514;23;20465;-79
2023/09/27 15:03:55;;;;;;;13.02;8.48;;;26.60;97.90;;;;;;6163372;23;20175;-77
2023/09/27 15:06:24;;;;;;;24.20;9.20;;;26.50;97.90;;;;;;6213121;23;20231;-78
2023/09/27 15:08:55;;;;;;;15.05;8.20;;;26.40;98.00;;;;;;6159200;23;20591;-80
2023/09/27 15:11:26;;;;;;;14.68;8.27;;;26.40;98.20;;;;;;6213085;23;20171;-80
2023/09/27 15:13:56;;;;;;;15.45;8.90;;;26.30;98.30;;;;;;6161848;23;20177;-79
2023/09/27 15:16:24;;;;;;;13.05;8.10;;;26.20;98.70;;;;;;6188258;23;20171;-78
2023/09/27 15:18:52;;;;;;;18.77;8.52;;;26.10;98.60;;;;;;6215211;23;20254;-80
2023/09/27 15:21:36;;;;;;;18.15;8.60;;;26.10;98.70;;;;;;6183428;23;20198;-79
2023/09/27 15:24:05;;;;;;;11.55;8.50;;;26.00;98.80;;;;;;6188617;23;20203;-79
2023/09/27 15:26:40;;;;;;;12.50;7.40;;;26.00;99.00;;;;;;6189764;23;20237;-79
2023/09/27 15:29:11;;;;;;;21.58;8.93;;;25.90;98.90;;;;;;6164501;23;20498;-78
2023/09/27 15:34:49;;;;;;;16.02;7.90;;;25.70;99.10;;;;;;6201236;22;20654;-83
2023/09/27 15:43:09;;;;;;;11.43;8.02;;;25.40;99.40;;;;;;6133768;23;20546;-81
2023/09/27 15:47:15;;;;;;;13.48;8.30;;;25.40;99.80;;;;;;6090035;23;20280;-87
2023/09/27 17:25:26;;;;;;;12.07;7.63;;;22.90;99.90;;;;;;6150097;23;20235;-85
2023/09/27 18:03:51;;;;;;;14.03;7.60;;;22.00;99.90;;;;;;4864623;27;6894172;-84
2023/09/27 18:06:52;;;;;;;13.57;7.60;;;21.90;99.90;;;;;;5048827;28;20225;-84
2023/09/27 18:14:29;;;;;;;19.70;8.60;;;21.90;99.90;;;;;;4929264;28;20680;-83
2023/09/27 18:17:00;;;;;;;12.80;7.97;;;21.90;99.90;;;;;;4931778;29;20206;-81
